Time;durP1;ratioP1;P1;durP2;ratioP2;P2;SDS_P1;SDS_P2;PMS_P1;PMS_P2;Temp;Humidity;BMP_temperature;BMP_pressure;BME280_temperature;BME280_humidity;BME280_pressure;Samples;Min_cycle;Max_cycle;Signal;HPM_P1;HPM_P2
2021/03/24 00:02:15;;;;;;;5.47;2.60;;;5.00;99.90;;;;;;5071547;28;20226;-62
2021/03/24 00:04:43;;;;;;;4.93;2.23;;;4.90;99.90;;;;;;5079161;28;20277;-61
2021/03/24 00:07:09;;;;;;;7.37;2.70;;;4.90;99.90;;;;;;5079821;28;20265;-61
2021/03/24 00:09:36;;;;;;;6.97;2.93;;;4.90;99.90;;;;;;5080080;28;20274;-61
2021/03/24 00:12:02;;;;;;;5.37;2.50;;;4.90;99.90;;;;;;5091437;28;20261;-61
2021/03/24 00:14:29;;;;;;;4.87;2.80;;;4.80;99.90;;;;;;5091069;28;20242;-60
2021/03/24 00:16:55;;;;;;;5.23;3.03;;;4.80;99.90;;;;;;5091380;28;20297;-60
2021/03/24 00:19:22;;;;;;;5.73;2.83;;;4.70;99.90;;;;;;5091136;28;20274;-61
2021/03/24 00:21:49;;;;;;;6.33;3.30;;;4.60;99.90;;;;;;5091056;28;20221;-59
2021/03/24 00:24:16;;;;;;;6.03;3.03;;;4.60;99.90;;;;;;5080037;28;20187;-62
2021/03/24 00:26:42;;;;;;;5.80;3.10;;;4.50;99.90;;;;;;5070733;28;20289;-60
2021/03/24 00:29:09;;;;;;;9.50;2.97;;;4.50;99.90;;;;;;5081949;28;20257;-60
2021/03/24 00:31:35;;;;;;;64.87;5.23;;;4.40;99.90;;;;;;5090661;28;20229;-60
2021/03/24 00:34:01;;;;;;;10.97;3.50;;;4.40;99.90;;;;;;5090808;28;20281;-61
2021/03/24 00:36:28;;;;;;;7.50;3.77;;;4.40;99.90;;;;;;5087304;28;20591;-60
2021/03/24 00:38:55;;;;;;;5.77;3.57;;;4.30;99.90;;;;;;5090917;28;20265;-60
2021/03/24 00:41:21;;;;;;;7.00;3.73;;;4.40;99.90;;;;;;5083858;28;20270;-61
2021/03/24 00:43:48;;;;;;;9.00;4.10;;;4.30;99.90;;;;;;5070538;28;20194;-60
2021/03/24 00:46:14;;;;;;;8.90;4.70;;;4.30;99.90;;;;;;5070583;28;20540;-60
2021/03/24 00:48:41;;;;;;;6.87;4.00;;;4.20;99.90;;;;;;5070456;28;20313;-59
2021/03/24 00:51:08;;;;;;;6.97;3.97;;;4.30;99.90;;;;;;5084945;28;20202;-60
2021/03/24 00:53:35;;;;;;;9.50;4.47;;;4.20;99.90;;;;;;5091233;28;20194;-60
2021/03/24 00:56:02;;;;;;;7.60;4.17;;;4.20;99.90;;;;;;5090641;28;20651;-60
2021/03/24 00:58:29;;;;;;;10.67;4.80;;;4.20;99.90;;;;;;5090894;28;20347;-60
2021/03/24 01:00:55;;;;;;;10.73;4.50;;;4.20;99.90;;;;;;5090930;28;20241;-60
2021/03/24 01:03:22;;;;;;;9.63;5.17;;;4.10;99.90;;;;;;5091369;28;20237;-62
2021/03/24 01:05:49;;;;;;;11.33;4.70;;;4.10;99.90;;;;;;5090725;28;20599;-60
2021/03/24 01:08:19;;;;;;;10.97;5.63;;;4.10;99.90;;;;;;5074872;28;20211;-61
2021/03/24 01:10:45;;;;;;;9.80;4.70;;;4.10;99.90;;;;;;5080823;28;20182;-62
2021/03/24 01:13:14;;;;;;;10.60;5.17;;;4.10;99.90;;;;;;5090459;28;20230;-61
2021/03/24 01:15:41;;;;;;;13.13;5.33;;;4.10;99.90;;;;;;5090183;28;20193;-61
2021/03/24 01:18:08;;;;;;;10.77;4.73;;;4.10;99.90;;;;;;5089219;28;20286;-59
2021/03/24 01:20:38;;;;;;;10.83;6.10;;;4.10;99.90;;;;;;5090899;28;20214;-61
2021/03/24 01:23:04;;;;;;;11.57;4.90;;;4.10;99.90;;;;;;5090563;28;20236;-61
2021/03/24 01:25:32;;;;;;;12.80;5.93;;;4.10;99.90;;;;;;5090940;28;20226;-61
2021/03/24 01:27:59;;;;;;;12.27;5.77;;;4.10;99.90;;;;;;5090258;28;20260;-61
2021/03/24 01:30:28;;;;;;;11.50;6.17;;;4.10;99.90;;;;;;5090776;28;20232;-62
2021/03/24 01:32:55;;;;;;;10.70;5.73;;;4.10;99.90;;;;;;5090474;28;20245;-60
2021/03/24 01:35:22;;;;;;;11.90;6.37;;;4.10;99.90;;;;;;5092433;28;20225;-60
2021/03/24 01:37:49;;;;;;;12.63;5.63;;;4.10;99.90;;;;;;5091372;28;20742;-61
2021/03/24 01:40:25;;;;;;;9.37;5.00;;;4.10;99.90;;;;;;5076152;28;20240;-62
2021/03/24 01:42:52;;;;;;;11.93;6.37;;;4.10;99.90;;;;;;5093900;28;20189;-61
2021/03/24 01:45:57;;;;;;;10.00;4.97;;;4.10;99.90;;;;;;5093295;28;20259;-60
2021/03/24 01:48:25;;;;;;;9.37;5.30;;;4.20;99.90;;;;;;5052669;28;20302;-60
2021/03/24 01:50:51;;;;;;;12.43;5.93;;;4.20;99.90;;;;;;5073642;28;20226;-59
2021/03/24 01:53:18;;;;;;;14.90;6.00;;;4.20;99.90;;;;;;5073685;28;20191;-60
2021/03/24 01:55:45;;;;;;;10.10;5.83;;;4.20;99.90;;;;;;5073587;28;20210;-62
2021/03/24 01:58:12;;;;;;;13.37;6.40;;;4.20;99.90;;;;;;5073601;28;20226;-60
2021/03/24 02:00:43;;;;;;;12.13;6.83;;;4.30;99.90;;;;;;5073715;28;20183;-62
2021/03/24 02:03:09;;;;;;;12.97;5.97;;;4.30;99.90;;;;;;5077098;28;20225;-61
2021/03/24 02:05:36;;;;;;;11.70;6.30;;;4.40;99.90;;;;;;5093302;28;20281;-61
2021/03/24 02:08:07;;;;;;;12.43;5.27;;;4.40;99.90;;;;;;5093272;28;20314;-60
2021/03/24 02:10:39;;;;;;;12.33;5.87;;;4.40;99.90;;;;;;5077999;28;20210;-61
2021/03/24 02:13:11;;;;;;;11.17;5.60;;;4.50;99.90;;;;;;5073168;28;20484;-60
2021/03/24 02:15:41;;;;;;;9.20;5.47;;;4.50;99.90;;;;;;5073031;28;20210;-62
2021/03/24 02:18:10;;;;;;;9.10;5.80;;;4.50;99.90;;;;;;5073699;28;20234;-60
2021/03/24 02:20:42;;;;;;;9.87;6.37;;;4.60;99.90;;;;;;5073031;28;20715;-60
2021/03/24 02:23:18;;;;;;;12.83;5.37;;;4.60;99.90;;;;;;5073200;28;20268;-62
2021/03/24 02:25:51;;;;;;;8.37;4.83;;;4.60;99.90;;;;;;5073331;28;20187;-61
2021/03/24 02:28:19;;;;;;;9.17;4.87;;;4.60;99.90;;;;;;5072691;28;20242;-59
2021/03/24 02:30:48;;;;;;;9.30;5.50;;;4.70;99.90;;;;;;5073733;28;20218;-61
2021/03/24 02:33:18;;;;;;;9.07;5.40;;;4.70;99.90;;;;;;5072362;28;20558;-61
2021/03/24 02:35:48;;;;;;;11.07;5.40;;;4.80;99.90;;;;;;5072419;28;20241;-61
2021/03/24 02:38:15;;;;;;;8.90;3.63;;;4.90;99.90;;;;;;5072115;28;20270;-60
2021/03/24 02:40:44;;;;;;;14.87;5.60;;;4.90;99.90;;;;;;5084406;28;20286;-61
2021/03/24 02:43:13;;;;;;;8.17;5.23;;;4.90;99.90;;;;;;5072680;28;20209;-61
2021/03/24 02:45:43;;;;;;;11.33;4.90;;;4.90;99.90;;;;;;5072023;28;20344;-61
2021/03/24 02:48:12;;;;;;;8.43;4.60;;;4.90;99.90;;;;;;5072510;28;20300;-60
2021/03/24 02:50:40;;;;;;;10.57;4.53;;;5.00;99.90;;;;;;5085361;28;20218;-61
2021/03/24 02:53:08;;;;;;;7.00;3.93;;;5.00;99.90;;;;;;5091273;28;20281;-59
2021/03/24 02:55:37;;;;;;;9.83;4.27;;;5.20;99.90;;;;;;5091957;28;20218;-60
2021/03/24 02:58:04;;;;;;;8.00;3.87;;;5.10;99.90;;;;;;5092604;28;20220;-61
2021/03/24 03:00:31;;;;;;;7.47;3.27;;;5.20;99.90;;;;;;5092343;28;20221;-60
2021/03/24 03:03:02;;;;;;;7.17;3.93;;;5.20;99.90;;;;;;5088754;28;20250;-61
2021/03/24 03:05:31;;;;;;;6.80;4.10;;;5.20;99.90;;;;;;5072280;28;20297;-62
2021/03/24 03:08:04;;;;;;;4.47;2.83;;;5.20;99.90;;;;;;5071922;28;20258;-60
2021/03/24 03:10:37;;;;;;;8.73;4.07;;;5.30;99.90;;;;;;5072285;28;20219;-61
2021/03/24 03:13:10;;;;;;;6.23;3.40;;;5.30;99.90;;;;;;5072969;28;20236;-60
2021/03/24 03:15:41;;;;;;;6.83;3.70;;;5.30;99.90;;;;;;5071940;28;20219;-60
2021/03/24 03:18:13;;;;;;;7.33;3.90;;;5.40;99.90;;;;;;5076681;28;20353;-62
2021/03/24 03:20:43;;;;;;;7.07;3.53;;;5.40;99.90;;;;;;5092289;28;20186;-62
2021/03/24 03:23:14;;;;;;;5.53;3.30;;;5.50;99.90;;;;;;5092539;28;20190;-61
2021/03/24 03:25:46;;;;;;;5.63;3.07;;;5.50;99.90;;;;;;5086899;28;20268;-60
2021/03/24 03:28:16;;;;;;;5.73;3.73;;;5.50;99.90;;;;;;5072343;28;20674;-62
2021/03/24 03:30:48;;;;;;;9.07;4.40;;;5.60;99.90;;;;;;5071634;28;20278;-61
2021/03/24 03:33:18;;;;;;;5.90;3.50;;;5.60;99.90;;;;;;5071316;28;20221;-60
2021/03/24 03:35:44;;;;;;;8.27;3.97;;;5.60;99.90;;;;;;5071963;28;20274;-61
2021/03/24 03:38:15;;;;;;;10.93;3.90;;;5.60;99.90;;;;;;5084148;28;20222;-60
2021/03/24 03:40:43;;;;;;;9.20;3.90;;;5.70;99.90;;;;;;5091722;28;20592;-61
2021/03/24 03:43:12;;;;;;;9.13;4.17;;;5.70;99.90;;;;;;5077821;28;20277;-60
2021/03/24 03:45:40;;;;;;;9.93;4.23;;;5.80;99.90;;;;;;5071340;28;20562;-60
2021/03/24 03:48:08;;;;;;;7.10;4.33;;;5.80;99.90;;;;;;5071240;28;20253;-61
2021/03/24 03:50:36;;;;;;;10.20;4.50;;;5.80;99.90;;;;;;5071515;28;20202;-61
2021/03/24 03:53:12;;;;;;;8.20;4.10;;;5.80;99.90;;;;;;5070914;28;20648;-61
2021/03/24 03:55:47;;;;;;;7.83;3.70;;;5.80;99.90;;;;;;5071300;28;20229;-60
2021/03/24 03:58:27;;;;;;;7.30;3.83;;;5.90;99.90;;;;;;5070537;28;20647;-61
2021/03/24 04:00:58;;;;;;;16.63;4.20;;;5.90;99.90;;;;;;5070865;28;20317;-61
2021/03/24 04:03:32;;;;;;;5.40;3.10;;;5.90;99.90;;;;;;5070975;28;20241;-62
2021/03/24 04:06:05;;;;;;;7.10;3.87;;;5.90;99.90;;;;;;5083482;28;20251;-62
2021/03/24 04:08:34;;;;;;;5.23;3.37;;;5.90;99.90;;;;;;5083241;28;20238;-60
2021/03/24 04:11:05;;;;;;;5.47;3.27;;;5.90;99.90;;;;;;5070913;28;20218;-60
2021/03/24 04:13:35;;;;;;;4.70;3.10;;;6.00;99.90;;;;;;5071313;28;20279;-61
2021/03/24 04:16:03;;;;;;;6.23;3.20;;;5.90;99.90;;;;;;5078724;28;20279;-61
2021/03/24 04:18:34;;;;;;;3.50;2.17;;;5.90;99.90;;;;;;5091265;28;20713;-61
2021/03/24 04:21:02;;;;;;;5.57;3.50;;;6.00;99.90;;;;;;5091344;28;20186;-62
2021/03/24 04:23:34;;;;;;;5.07;3.00;;;6.00;99.90;;;;;;5090975;28;20289;-62
2021/03/24 04:26:05;;;;;;;7.77;3.03;;;6.00;99.90;;;;;;5090902;28;20658;-63
2021/03/24 04:28:36;;;;;;;4.23;2.70;;;6.00;99.90;;;;;;5090821;28;20675;-61
2021/03/24 04:31:07;;;;;;;3.60;2.60;;;6.10;99.90;;;;;;5090930;28;20647;-61
2021/03/24 04:33:34;;;;;;;7.23;3.03;;;6.00;99.90;;;;;;5080759;28;20225;-62
2021/03/24 04:36:09;;;;;;;9.10;3.20;;;6.10;99.90;;;;;;5071073;28;20647;-60
2021/03/24 04:38:40;;;;;;;6.07;3.00;;;6.10;99.90;;;;;;5078189;28;20218;-62
2021/03/24 04:41:11;;;;;;;4.87;3.17;;;6.10;99.90;;;;;;5091028;28;20214;-60
2021/03/24 04:43:40;;;;;;;5.70;2.90;;;6.10;99.90;;;;;;5090620;28;20182;-59
2021/03/24 04:46:12;;;;;;;8.33;3.80;;;6.10;99.90;;;;;;5077909;28;20219;-62
2021/03/24 04:48:43;;;;;;;4.53;3.20;;;6.20;99.90;;;;;;5070582;28;20297;-61
2021/03/24 04:51:13;;;;;;;3.80;3.20;;;6.20;99.90;;;;;;5070763;28;20195;-60
2021/03/24 04:53:43;;;;;;;5.23;3.33;;;6.20;99.90;;;;;;5070618;28;20241;-60
2021/03/24 04:56:12;;;;;;;6.10;3.30;;;6.20;99.90;;;;;;5070794;28;20329;-60
2021/03/24 04:58:42;;;;;;;6.30;3.43;;;6.20;99.90;;;;;;5070666;28;20230;-62
2021/03/24 05:01:13;;;;;;;5.13;3.13;;;6.20;99.90;;;;;;5070882;28;20336;-61
2021/03/24 05:03:43;;;;;;;6.63;3.40;;;6.20;99.90;;;;;;5070731;28;20287;-61
2021/03/24 05:06:20;;;;;;;4.93;2.70;;;6.30;99.90;;;;;;5070918;28;20245;-60
2021/03/24 05:08:46;;;;;;;8.40;3.67;;;6.30;99.90;;;;;;5076120;28;20646;-60
2021/03/24 05:11:21;;;;;;;6.20;3.60;;;6.30;99.90;;;;;;5094375;28;20379;-60
2021/03/24 05:13:56;;;;;;;8.33;3.87;;;6.30;99.90;;;;;;5095083;28;20193;-61
2021/03/24 05:16:28;;;;;;;7.83;3.63;;;6.30;99.90;;;;;;5089554;28;20261;-61
2021/03/24 05:18:57;;;;;;;11.20;4.33;;;6.30;99.90;;;;;;5085669;28;20313;-62
2021/03/24 05:21:55;;;;;;;11.73;4.17;;;6.30;99.90;;;;;;5094318;28;20663;-60
2021/03/24 05:24:27;;;;;;;6.30;4.07;;;6.30;99.90;;;;;;5095039;28;20225;-61
2021/03/24 05:27:01;;;;;;;9.70;3.60;;;6.40;99.90;;;;;;5094573;28;20555;-62
2021/03/24 05:29:33;;;;;;;5.93;4.20;;;6.40;99.90;;;;;;5093623;28;20497;-59
2021/03/24 05:32:01;;;;;;;6.13;3.67;;;6.40;99.90;;;;;;5094558;28;20274;-61
2021/03/24 05:34:29;;;;;;;10.53;4.50;;;6.40;99.90;;;;;;5093729;28;20218;-60
2021/03/24 05:36:58;;;;;;;7.27;4.20;;;6.40;99.90;;;;;;5077046;28;20225;-60
2021/03/24 05:39:27;;;;;;;8.63;4.67;;;6.40;99.90;;;;;;5068089;28;20314;-60
2021/03/24 05:42:02;;;;;;;9.67;4.00;;;6.40;99.90;;;;;;5054651;28;20202;-61
2021/03/24 05:44:42;;;;;;;9.33;4.37;;;6.40;99.90;;;;;;5054267;28;20215;-60
2021/03/24 05:47:33;;;;;;;7.97;4.13;;;6.40;99.90;;;;;;5054167;28;20598;-60
2021/03/24 05:50:19;;;;;;;6.77;3.93;;;6.40;99.90;;;;;;5062479;28;20302;-60
2021/03/24 05:52:59;;;;;;;7.47;4.10;;;6.40;99.90;;;;;;5056813;28;20260;-61
2021/03/24 05:55:42;;;;;;;11.43;4.87;;;6.40;99.90;;;;;;5072853;28;20244;-62
2021/03/24 05:58:30;;;;;;;7.13;3.97;;;6.50;99.90;;;;;;5073391;28;20270;-62
2021/03/24 06:01:02;;;;;;;7.27;3.67;;;6.30;99.90;;;;;;5074267;28;20187;-61
2021/03/24 06:04:04;;;;;;;7.07;4.00;;;6.40;99.90;;;;;;5072261;28;20650;-60
2021/03/24 06:07:09;;;;;;;7.80;4.03;;;6.40;99.90;;;;;;5068049;28;20195;-62
2021/03/24 06:09:50;;;;;;;11.53;3.13;;;6.30;99.90;;;;;;5053666;28;20337;-61
2021/03/24 06:12:41;;;;;;;11.73;4.23;;;6.40;99.90;;;;;;5053831;28;20183;-59
2021/03/24 06:15:34;;;;;;;12.30;4.30;;;6.40;99.90;;;;;;5053677;28;20350;-62
2021/03/24 06:18:27;;;;;;;8.23;3.90;;;6.40;99.90;;;;;;5053848;28;20183;-61
2021/03/24 06:21:02;;;;;;;11.37;4.50;;;6.40;99.90;;;;;;5053401;28;20253;-62
2021/03/24 06:23:51;;;;;;;6.73;2.97;;;6.30;99.90;;;;;;5053659;28;20722;-62
2021/03/24 06:26:49;;;;;;;12.03;4.87;;;6.40;99.90;;;;;;5043790;28;20198;-61
2021/03/24 06:29:27;;;;;;;5.67;2.93;;;6.30;99.90;;;;;;5056112;28;20292;-62
2021/03/24 06:32:12;;;;;;;4.73;3.43;;;6.40;99.90;;;;;;5065197;28;20257;-62
2021/03/24 06:34:54;;;;;;;6.40;3.73;;;6.40;99.90;;;;;;5009519;28;20230;-60
2021/03/24 06:37:50;;;;;;;7.43;3.67;;;6.30;99.90;;;;;;5055762;28;20229;-62
2021/03/24 06:40:34;;;;;;;9.60;4.23;;;6.40;99.90;;;;;;5077581;28;20583;-61
2021/03/24 06:43:18;;;;;;;6.00;3.87;;;6.30;99.90;;;;;;5073705;28;20601;-62
2021/03/24 06:45:52;;;;;;;9.73;3.80;;;6.40;99.90;;;;;;5080999;28;20766;-61
2021/03/24 06:48:40;;;;;;;5.27;3.10;;;6.40;99.90;;;;;;5082537;28;20250;-60
2021/03/24 06:51:53;;;;;;;9.63;3.80;;;6.40;99.90;;;;;;5073152;28;20210;-61
2021/03/24 06:54:43;;;;;;;16.13;4.73;;;6.40;99.90;;;;;;5072641;28;20645;-61
2021/03/24 06:57:40;;;;;;;10.33;4.27;;;6.40;99.90;;;;;;5078232;28;20604;-61
2021/03/24 07:00:25;;;;;;;8.13;3.90;;;6.40;99.90;;;;;;5074154;28;20215;-59
2021/03/24 07:03:31;;;;;;;12.17;4.60;;;6.50;99.90;;;;;;5074292;28;20313;-62
2021/03/24 07:06:17;;;;;;;8.67;4.27;;;6.50;99.90;;;;;;5073618;28;20179;-61
2021/03/24 07:09:00;;;;;;;8.37;3.40;;;6.50;99.90;;;;;;5072710;28;20308;-61
2021/03/24 07:11:38;;;;;;;8.30;4.50;;;6.60;99.90;;;;;;5090159;28;20209;-63
2021/03/24 07:14:56;;;;;;;14.23;4.87;;;6.60;99.90;;;;;;5075043;28;20182;-62
2021/03/24 07:17:47;;;;;;;15.67;6.37;;;6.70;99.90;;;;;;5073876;28;20230;-62
2021/03/24 07:20:41;;;;;;;9.93;4.47;;;6.70;99.90;;;;;;5075442;28;20198;-61
2021/03/24 07:23:24;;;;;;;9.67;4.60;;;6.80;99.90;;;;;;5072209;28;20605;-61
2021/03/24 07:26:00;;;;;;;7.43;4.43;;;6.80;99.90;;;;;;5079760;28;20190;-62
2021/03/24 07:28:47;;;;;;;8.73;3.93;;;6.80;99.90;;;;;;5078758;28;20241;-60
2021/03/24 07:31:30;;;;;;;8.30;4.23;;;6.80;99.90;;;;;;5072426;28;20368;-61
2021/03/24 07:34:06;;;;;;;8.50;4.20;;;6.80;99.90;;;;;;5071811;28;20208;-61
2021/03/24 07:36:45;;;;;;;10.30;4.63;;;6.90;99.90;;;;;;5075571;28;20194;-61
2021/03/24 07:39:44;;;;;;;8.57;3.90;;;6.90;99.90;;;;;;5077280;28;20258;-60
2021/03/24 07:42:34;;;;;;;3.70;2.30;;;6.90;99.90;;;;;;5072904;28;20186;-61
2021/03/24 07:45:24;;;;;;;14.53;4.70;;;6.90;99.90;;;;;;5080132;28;20187;-61
2021/03/24 07:48:22;;;;;;;9.07;4.23;;;6.90;99.90;;;;;;5084789;28;20186;-61
2021/03/24 07:50:56;;;;;;;10.60;4.47;;;6.90;99.90;;;;;;5072445;28;20272;-63
2021/03/24 07:53:38;;;;;;;9.53;3.73;;;7.00;99.90;;;;;;5085361;28;20197;-60
2021/03/24 07:56:16;;;;;;;10.33;3.80;;;7.00;99.90;;;;;;5092636;28;20232;-60
2021/03/24 07:59:12;;;;;;;10.43;4.30;;;6.90;99.90;;;;;;5079140;28;20233;-60
2021/03/24 08:01:47;;;;;;;9.37;3.70;;;7.00;99.90;;;;;;5072576;28;20226;-60
2021/03/24 08:04:36;;;;;;;14.53;4.70;;;7.10;99.90;;;;;;5071713;28;20242;-61
2021/03/24 08:07:15;;;;;;;14.03;4.40;;;7.10;99.90;;;;;;5071906;28;20611;-62
2021/03/24 08:10:01;;;;;;;9.27;4.23;;;7.00;99.90;;;;;;5074682;28;20230;-61
2021/03/24 08:12:53;;;;;;;12.37;4.90;;;7.00;99.90;;;;;;5084625;28;20191;-62
2021/03/24 08:15:38;;;;;;;8.70;3.87;;;7.00;99.90;;;;;;5072788;28;20182;-63
2021/03/24 08:18:14;;;;;;;18.00;3.47;;;7.10;99.90;;;;;;5071691;28;20596;-61
2021/03/24 08:20:51;;;;;;;7.70;4.03;;;7.10;99.90;;;;;;5071420;28;20226;-62
2021/03/24 08:23:50;;;;;;;8.40;4.83;;;7.10;99.90;;;;;;5071566;28;20178;-62
2021/03/24 08:26:23;;;;;;;16.10;3.63;;;7.00;99.90;;;;;;5073242;28;20673;-62
2021/03/24 08:29:00;;;;;;;9.30;3.77;;;7.10;99.90;;;;;;5075737;28;20253;-63
2021/03/24 08:32:10;;;;;;;18.00;5.97;;;7.10;99.90;;;;;;5075025;28;20571;-63
2021/03/24 08:35:01;;;;;;;13.17;5.47;;;7.20;99.90;;;;;;5085720;28;20214;-61
2021/03/24 08:37:57;;;;;;;17.23;7.00;;;7.30;99.90;;;;;;5079692;28;20293;-60
2021/03/24 08:40:38;;;;;;;24.23;8.17;;;7.30;99.90;;;;;;5088222;28;20515;-60
2021/03/24 08:43:31;;;;;;;13.37;6.40;;;7.20;99.90;;;;;;5091727;28;20190;-62
2021/03/24 08:46:05;;;;;;;25.03;7.07;;;7.20;99.90;;;;;;5095167;28;20225;-61
2021/03/24 08:48:37;;;;;;;13.07;5.57;;;7.10;99.90;;;;;;5091166;28;20364;-59
2021/03/24 08:51:15;;;;;;;16.47;7.10;;;7.20;99.90;;;;;;5082418;28;20632;-61
2021/03/24 08:53:55;;;;;;;17.70;8.40;;;7.20;99.90;;;;;;5082588;28;20229;-61
2021/03/24 08:56:30;;;;;;;17.00;6.63;;;7.30;99.90;;;;;;5090103;28;20643;-61
2021/03/24 08:59:10;;;;;;;18.33;7.30;;;7.40;99.90;;;;;;5087494;28;20232;-61
2021/03/24 09:01:55;;;;;;;17.07;6.93;;;7.40;99.90;;;;;;5084478;28;20588;-62
2021/03/24 09:04:38;;;;;;;14.40;5.80;;;7.50;99.90;;;;;;5075147;28;20214;-61
2021/03/24 09:07:15;;;;;;;12.57;5.80;;;7.40;99.90;;;;;;5075301;28;20196;-62
2021/03/24 09:09:56;;;;;;;17.80;6.70;;;7.50;99.90;;;;;;5075414;28;20516;-61
2021/03/24 09:12:28;;;;;;;14.70;6.93;;;7.50;99.90;;;;;;5074844;28;20639;-62
2021/03/24 09:15:03;;;;;;;14.90;6.97;;;7.50;99.90;;;;;;5075069;28;20628;-61
2021/03/24 09:17:41;;;;;;;13.67;7.60;;;7.50;99.90;;;;;;5093333;28;20213;-61
2021/03/24 09:20:45;;;;;;;14.77;6.77;;;7.60;99.90;;;;;;5095161;28;20616;-61
2021/03/24 09:23:46;;;;;;;10.60;5.20;;;7.60;99.90;;;;;;5080444;28;20201;-61
2021/03/24 09:26:31;;;;;;;16.17;6.77;;;7.70;99.90;;;;;;5080943;28;20198;-62
2021/03/24 09:29:21;;;;;;;15.00;6.53;;;7.90;99.90;;;;;;5075721;28;20205;-59
2021/03/24 09:32:07;;;;;;;10.77;5.47;;;8.00;99.90;;;;;;5085814;28;20190;-61
2021/03/24 09:34:54;;;;;;;16.73;5.50;;;8.00;99.90;;;;;;5095282;28;20183;-62
2021/03/24 09:37:24;;;;;;;10.87;5.00;;;8.30;99.90;;;;;;5087639;28;20217;-61
2021/03/24 09:39:54;;;;;;;19.43;7.47;;;8.20;99.90;;;;;;5074664;28;20214;-61
2021/03/24 09:42:31;;;;;;;13.80;6.90;;;8.40;99.90;;;;;;5074659;28;20207;-61
2021/03/24 09:45:07;;;;;;;10.70;5.67;;;8.70;99.90;;;;;;5075001;28;20473;-60
2021/03/24 09:47:43;;;;;;;10.27;4.97;;;8.90;99.90;;;;;;5078656;28;20250;-60
2021/03/24 09:50:26;;;;;;;14.97;6.50;;;8.80;99.90;;;;;;5091451;28;20202;-61
2021/03/24 09:52:57;;;;;;;10.43;5.43;;;8.90;99.90;;;;;;5081149;28;20237;-60
2021/03/24 09:55:27;;;;;;;11.53;4.87;;;9.00;99.90;;;;;;5073407;28;20191;-61
2021/03/24 09:58:15;;;;;;;8.97;3.97;;;9.10;99.90;;;;;;5077804;28;20613;-62
2021/03/24 10:00:53;;;;;;;13.93;5.77;;;9.20;99.90;;;;;;5074169;28;20194;-60
2021/03/24 10:03:32;;;;;;;19.43;6.17;;;9.10;99.90;;;;;;5084018;28;20179;-61
2021/03/24 10:06:01;;;;;;;8.27;4.50;;;9.10;99.90;;;;;;5074224;28;20206;-60
2021/03/24 10:08:33;;;;;;;9.80;4.17;;;9.20;99.90;;;;;;5086996;28;20194;-61
2021/03/24 10:11:05;;;;;;;9.60;4.83;;;9.30;99.90;;;;;;5094377;28;20301;-60
2021/03/24 10:13:35;;;;;;;10.63;4.97;;;9.40;99.90;;;;;;5093334;28;20247;-61
2021/03/24 10:16:12;;;;;;;20.60;4.43;;;9.40;99.90;;;;;;5094651;28;20272;-63
2021/03/24 10:18:46;;;;;;;15.00;5.40;;;9.40;99.90;;;;;;5082160;28;20648;-64
2021/03/24 10:21:16;;;;;;;10.33;4.33;;;9.30;99.90;;;;;;5079312;28;20210;-62
2021/03/24 10:23:47;;;;;;;11.83;4.63;;;9.20;99.90;;;;;;5089705;28;20292;-62
2021/03/24 10:26:16;;;;;;;17.80;4.67;;;9.30;99.90;;;;;;5091712;28;20191;-65
2021/03/24 10:28:51;;;;;;;15.77;5.07;;;9.10;99.90;;;;;;5080187;28;20245;-62
2021/03/24 10:31:23;;;;;;;12.70;4.90;;;9.30;99.90;;;;;;5086355;28;20269;-60
2021/03/24 10:33:54;;;;;;;9.17;3.70;;;9.30;99.90;;;;;;5074351;28;20187;-63
2021/03/24 10:36:26;;;;;;;12.57;3.33;;;9.20;99.90;;;;;;5074005;28;20285;-62
2021/03/24 10:39:00;;;;;;;19.93;5.73;;;9.20;99.90;;;;;;5074029;28;20235;-63
2021/03/24 10:41:50;;;;;;;14.73;5.20;;;9.30;99.90;;;;;;5086633;28;20247;-62
2021/03/24 10:44:22;;;;;;;9.83;5.33;;;9.10;99.90;;;;;;5092957;28;20189;-63
2021/03/24 10:47:05;;;;;;;16.23;5.50;;;9.00;99.90;;;;;;5093776;28;20291;-61
2021/03/24 10:49:39;;;;;;;12.03;4.93;;;9.10;99.90;;;;;;5092308;28;20289;-62
2021/03/24 10:52:13;;;;;;;16.87;5.87;;;9.10;99.90;;;;;;5093927;28;20186;-64
2021/03/24 10:54:40;;;;;;;15.97;5.10;;;8.90;99.90;;;;;;5079977;28;20679;-61
2021/03/24 10:57:36;;;;;;;9.67;5.40;;;9.00;99.90;;;;;;5081739;28;20202;-63
2021/03/24 11:00:12;;;;;;;13.50;5.90;;;9.00;99.90;;;;;;5092814;28;20201;-64
2021/03/24 11:02:48;;;;;;;10.70;5.70;;;9.00;99.90;;;;;;5076513;28;20190;-62
2021/03/24 11:05:22;;;;;;;10.20;4.97;;;9.10;99.90;;;;;;5072803;28;20216;-63
2021/03/24 11:07:53;;;;;;;9.30;5.13;;;9.30;99.90;;;;;;5071948;28;20669;-64
2021/03/24 11:10:34;;;;;;;9.57;4.63;;;9.40;99.90;;;;;;5073414;28;20233;-63
2021/03/24 11:13:03;;;;;;;17.40;4.23;;;9.30;99.90;;;;;;5093745;28;20190;-62
2021/03/24 11:16:05;;;;;;;10.23;4.17;;;9.30;99.90;;;;;;5079318;28;20195;-61
2021/03/24 11:18:38;;;;;;;10.67;5.00;;;9.10;99.90;;;;;;5077826;28;20269;-60
2021/03/24 11:21:27;;;;;;;15.27;5.67;;;9.00;99.90;;;;;;5073037;28;20179;-61
2021/03/24 11:23:58;;;;;;;10.27;3.97;;;9.20;99.90;;;;;;5072620;28;20241;-60
2021/03/24 11:26:56;;;;;;;14.23;5.27;;;9.30;99.90;;;;;;5088878;28;20600;-62
2021/03/24 11:29:24;;;;;;;7.77;4.23;;;9.40;99.90;;;;;;5080145;28;20215;-62
2021/03/24 11:31:58;;;;;;;17.67;5.37;;;9.20;99.90;;;;;;5077296;28;20590;-62
2021/03/24 11:34:37;;;;;;;13.97;4.70;;;9.10;99.90;;;;;;5072596;28;20550;-62
2021/03/24 11:37:11;;;;;;;13.47;6.17;;;9.00;99.90;;;;;;5072443;28;20320;-60
2021/03/24 11:39:46;;;;;;;22.47;6.20;;;9.10;99.90;;;;;;5051788;28;20183;-60
2021/03/24 11:42:15;;;;;;;9.77;4.33;;;9.10;99.90;;;;;;5054804;28;20214;-60
2021/03/24 11:44:44;;;;;;;11.43;5.30;;;9.10;99.90;;;;;;5059393;28;20252;-61
2021/03/24 11:47:25;;;;;;;11.40;5.20;;;9.30;99.90;;;;;;5065768;28;20200;-60
2021/03/24 11:50:02;;;;;;;11.20;5.50;;;9.50;99.90;;;;;;5072402;28;20246;-61
2021/03/24 11:52:49;;;;;;;7.93;3.90;;;9.70;99.90;;;;;;5072342;28;20179;-60
2021/03/24 11:55:53;;;;;;;14.97;4.90;;;9.60;99.90;;;;;;5071354;28;20232;-61
2021/03/24 11:58:31;;;;;;;13.00;4.40;;;9.50;99.90;;;;;;5029698;28;20335;-59
2021/03/24 12:01:03;;;;;;;8.13;3.93;;;9.40;99.90;;;;;;5066864;28;20230;-60
2021/03/24 12:03:56;;;;;;;9.87;3.77;;;9.30;99.90;;;;;;5072388;28;20583;-59
2021/03/24 12:06:38;;;;;;;10.03;5.63;;;9.20;99.90;;;;;;5072395;28;20611;-59
2021/03/24 12:09:10;;;;;;;13.80;6.27;;;9.20;99.90;;;;;;5053918;28;20230;-60
2021/03/24 12:11:40;;;;;;;12.93;5.43;;;9.30;99.90;;;;;;5066072;28;20186;-61
2021/03/24 12:14:15;;;;;;;11.60;4.90;;;9.30;99.90;;;;;;5071047;28;20186;-61
2021/03/24 12:16:49;;;;;;;14.83;5.33;;;9.30;99.90;;;;;;5062610;28;20191;-60
2021/03/24 12:19:32;;;;;;;15.17;5.70;;;9.40;99.90;;;;;;5052122;28;20605;-60
2021/03/24 12:22:02;;;;;;;9.80;4.57;;;9.40;99.90;;;;;;5051781;28;20605;-60
2021/03/24 12:24:35;;;;;;;8.13;4.17;;;9.40;99.90;;;;;;5052695;28;20191;-60
2021/03/24 12:27:11;;;;;;;13.60;5.37;;;9.40;99.90;;;;;;5053554;28;20199;-60
2021/03/24 12:29:38;;;;;;;9.87;4.70;;;9.40;99.90;;;;;;5052572;28;20389;-60
2021/03/24 12:32:08;;;;;;;13.43;6.23;;;9.40;99.90;;;;;;5052824;28;20223;-60
2021/03/24 12:34:42;;;;;;;15.57;6.80;;;9.50;99.90;;;;;;5052347;28;20239;-60
2021/03/24 12:37:24;;;;;;;10.83;4.93;;;9.50;99.90;;;;;;5060473;28;20191;-59
2021/03/24 12:39:52;;;;;;;7.77;4.70;;;9.40;99.90;;;;;;5072045;28;20194;-60
2021/03/24 12:42:25;;;;;;;14.37;5.63;;;9.40;99.90;;;;;;5071925;28;20195;-61
2021/03/24 12:44:53;;;;;;;14.87;6.07;;;9.50;99.90;;;;;;5071653;28;20550;-60
2021/03/24 12:47:33;;;;;;;12.17;6.17;;;9.60;99.90;;;;;;5070097;28;20674;-60
2021/03/24 12:50:27;;;;;;;17.37;6.67;;;9.60;99.90;;;;;;5071809;28;20214;-60
2021/03/24 12:53:04;;;;;;;13.30;5.57;;;9.70;99.90;;;;;;5071304;28;20189;-59
2021/03/24 12:55:31;;;;;;;14.87;4.07;;;9.70;99.90;;;;;;5071229;28;20218;-60
2021/03/24 12:58:14;;;;;;;14.00;6.03;;;9.70;99.90;;;;;;5071424;28;20194;-60
2021/03/24 13:00:57;;;;;;;12.30;6.17;;;9.70;99.90;;;;;;5071652;28;20273;-61
2021/03/24 13:03:48;;;;;;;12.50;5.77;;;9.80;99.90;;;;;;5071528;28;20191;-60
2021/03/24 13:06:51;;;;;;;11.10;5.50;;;10.00;99.90;;;;;;5071602;28;20187;-60
2021/03/24 13:09:28;;;;;;;9.17;5.20;;;10.00;99.90;;;;;;4989657;28;20255;-60
2021/03/24 13:12:04;;;;;;;10.60;4.43;;;10.10;99.90;;;;;;5057561;28;20317;-61
2021/03/24 13:14:44;;;;;;;9.20;4.77;;;10.30;99.90;;;;;;5071223;28;20186;-61
2021/03/24 13:17:21;;;;;;;10.50;4.77;;;11.10;99.90;;;;;;5071155;28;20620;-61
2021/03/24 13:19:59;;;;;;;10.17;5.83;;;12.00;99.90;;;;;;5080464;28;20207;-60
2021/03/24 13:22:37;;;;;;;10.33;5.03;;;12.10;99.90;;;;;;5072684;28;20240;-59
2021/03/24 13:25:15;;;;;;;13.20;6.07;;;12.30;99.90;;;;;;5071846;28;20201;-60
2021/03/24 13:28:05;;;;;;;18.53;6.27;;;13.10;99.90;;;;;;5083160;28;20191;-60
2021/03/24 13:30:39;;;;;;;10.27;5.07;;;13.10;99.90;;;;;;5091511;28;20246;-61
2021/03/24 13:33:14;;;;;;;17.67;5.70;;;12.80;99.90;;;;;;5085167;28;20210;-61
2021/03/24 13:35:44;;;;;;;10.80;4.73;;;13.70;99.90;;;;;;5084571;28;20190;-60
2021/03/24 13:38:28;;;;;;;11.87;5.90;;;13.80;99.90;;;;;;5094901;28;20245;-60